Time;durP1;ratioP1;P1;durP2;ratioP2;P2;SDS_P1;SDS_P2;PMS_P1;PMS_P2;Temp;Humidity;BMP_temperature;BMP_pressure;BME280_temperature;BME280_humidity;BME280_pressure;Samples;Min_cycle;Max_cycle;Signal;HPM_P1;HPM_P2
2022/06/27 00:02:07;;;;;;;5.28;3.00;;;;;;;19.61;75.80;101646.72;4967486;28;20039;-64
2022/06/27 00:04:33;;;;;;;10.85;3.50;;;;;;;19.60;76.44;101645.88;4969597;28;20034;-62
2022/06/27 00:06:58;;;;;;;7.97;3.63;;;;;;;19.61;76.94;101646.72;4969031;28;20124;-62
2022/06/27 00:09:23;;;;;;;4.55;2.95;;;;;;;19.64;76.45;101650.09;4970354;28;20027;-62
2022/06/27 00:11:49;;;;;;;9.20;3.17;;;;;;;19.69;76.11;101653.31;4968639;28;20164;-62
2022/06/27 00:14:14;;;;;;;7.10;3.17;;;;;;;19.70;76.18;101647.06;4969939;28;20125;-62
2022/06/27 00:16:39;;;;;;;5.47;3.00;;;;;;;19.71;76.42;101647.88;4969242;28;20071;-62
2022/06/27 00:19:04;;;;;;;6.60;2.75;;;;;;;19.72;76.48;101644.28;4967909;28;20101;-62
2022/06/27 00:21:30;;;;;;;5.07;2.83;;;;;;;19.70;76.31;101652.41;4973520;28;20500;-62
2022/06/27 00:23:55;;;;;;;6.57;3.25;;;;;;;19.67;76.33;101649.03;4968836;28;20520;-62
2022/06/27 00:26:21;;;;;;;5.63;2.88;;;;;;;19.66;76.24;101648.16;4969129;28;20625;-62
2022/06/27 00:28:46;;;;;;;7.93;3.15;;;;;;;19.67;76.60;101647.22;4969923;28;20125;-63
2022/06/27 00:31:11;;;;;;;6.75;3.17;;;;;;;19.68;76.46;101654.28;4967520;28;20069;-64
2022/06/27 00:33:37;;;;;;;6.65;3.00;;;;;;;19.69;76.38;101656.00;4970983;28;20716;-62
2022/06/27 00:36:02;;;;;;;6.60;2.92;;;;;;;19.66;76.77;101653.50;4968990;28;20033;-63
2022/06/27 00:38:28;;;;;;;5.60;3.15;;;;;;;19.64;76.63;101652.75;4969337;28;20153;-62
2022/06/27 00:40:53;;;;;;;6.70;3.30;;;;;;;19.63;76.77;101661.72;4969168;28;20374;-61
2022/06/27 00:43:19;;;;;;;5.47;3.10;;;;;;;19.61;76.49;101663.63;4966922;28;20384;-63
2022/06/27 00:45:45;;;;;;;6.53;3.42;;;;;;;19.59;76.98;101676.22;4971165;28;20037;-62
2022/06/27 00:48:10;;;;;;;6.80;3.50;;;;;;;19.59;77.32;101680.72;4967459;28;20457;-63
2022/06/27 00:50:36;;;;;;;11.18;4.00;;;;;;;19.59;77.70;101684.22;4969629;28;20037;-62
2022/06/27 00:53:01;;;;;;;9.63;3.60;;;;;;;19.59;77.67;101675.38;4969491;28;20081;-62
2022/06/27 00:55:26;;;;;;;7.07;3.38;;;;;;;19.60;77.28;101683.31;4969915;28;20595;-61
2022/06/27 00:57:52;;;;;;;7.78;3.95;;;;;;;19.65;77.57;101683.00;4967198;28;20070;-61
2022/06/27 01:00:18;;;;;;;9.90;3.85;;;;;;;19.62;77.35;101692.06;4968816;28;20027;-62
2022/06/27 01:02:43;;;;;;;4.55;3.80;;;;;;;19.60;78.15;101682.44;4968315;28;20038;-64
2022/06/27 01:05:11;;;;;;;9.18;3.90;;;;;;;19.56;78.67;101677.28;4966701;28;20030;-63
2022/06/27 01:07:38;;;;;;;6.33;4.00;;;;;;;19.59;78.56;101680.72;4971145;28;20023;-62
2022/06/27 01:10:04;;;;;;;5.82;3.88;;;;;;;19.56;78.79;101677.28;4968340;28;20049;-62
2022/06/27 01:12:30;;;;;;;8.52;4.22;;;;;;;19.59;78.64;101683.41;4969224;28;20110;-62
2022/06/27 01:14:55;;;;;;;7.80;4.60;;;;;;;19.56;78.45;101673.72;4969224;28;20030;-61
2022/06/27 01:17:21;;;;;;;8.82;4.70;;;;;;;19.53;78.98;101674.78;4966204;28;20031;-62
2022/06/27 01:19:46;;;;;;;7.80;5.38;;;;;;;19.50;79.08;101671.44;4968868;28;20043;-62
2022/06/27 01:22:11;;;;;;;8.40;4.72;;;;;;;19.45;79.23;101661.00;4968061;28;20019;-62
2022/06/27 01:24:37;;;;;;;6.78;4.50;;;;;;;19.58;78.51;101661.13;4969483;28;20043;-62
2022/06/27 01:27:06;;;;;;;12.57;5.03;;;;;;;19.49;79.00;101656.34;4969409;28;20045;-61
2022/06/27 01:29:32;;;;;;;;;;;;;;;19.41;79.04;101673.69;4967374;28;20030;-60
2022/06/27 01:31:57;;;;;;;12.32;5.05;;;;;;;19.34;78.28;101680.34;4969427;28;20632;-61
2022/06/27 01:34:22;;;;;;;9.55;5.15;;;;;;;19.35;77.82;101681.22;4967793;28;20434;-62
2022/06/27 01:36:48;;;;;;;11.90;4.85;;;;;;;19.34;77.44;101679.47;4968978;28;20050;-60
2022/06/27 01:39:19;;;;;;;6.15;3.88;;;;;;;19.36;76.84;101678.44;4968570;28;20106;-62
2022/06/27 01:42:02;;;;;;;6.68;4.18;;;;;;;19.33;76.60;101675.94;4967650;28;21196;-61
2022/06/27 01:44:30;;;;;;;9.60;5.75;;;;;;;19.27;75.83;101668.28;4969295;28;20604;-63
2022/06/27 01:46:58;;;;;;;15.05;5.60;;;;;;;19.26;75.89;101663.91;4966923;28;20406;-61
2022/06/27 01:49:24;;;;;;;9.98;5.43;;;;;;;19.24;75.15;101674.69;4968712;28;20491;-61
2022/06/27 01:51:50;;;;;;;8.50;4.60;;;;;;;19.25;74.97;101675.53;4967841;28;20117;-62
2022/06/27 01:54:18;;;;;;;9.68;5.28;;;;;;;19.28;74.30;101665.53;4967367;28;20477;-62
2022/06/27 01:56:44;;;;;;;9.45;5.35;;;;;;;19.27;74.38;101670.97;4965785;28;20062;-61
2022/06/27 01:59:11;;;;;;;9.30;5.57;;;;;;;19.23;74.69;101672.94;4970604;28;20465;-63
2022/06/27 02:01:39;;;;;;;8.27;5.20;;;;;;;19.21;74.72;101668.63;4971231;28;20060;-61
2022/06/27 02:04:05;;;;;;;8.25;5.30;;;;;;;19.21;74.57;101660.63;4972151;28;20089;-63
2022/06/27 02:06:30;;;;;;;8.43;5.10;;;;;;;19.19;74.90;101653.56;4954589;28;20487;-62
2022/06/27 02:08:57;;;;;;;10.68;5.55;;;;;;;19.18;74.87;101643.81;4969956;28;20035;-62
2022/06/27 02:11:22;;;;;;;12.07;5.82;;;;;;;19.13;75.39;101634.34;4972033;28;20470;-63
2022/06/27 02:13:47;;;;;;;8.35;5.20;;;;;;;19.16;75.31;101621.69;4970322;28;20022;-63
2022/06/27 02:16:17;;;;;;;11.70;5.00;;;;;;;19.11;75.43;101622.91;4971242;28;20034;-62
2022/06/27 02:18:43;;;;;;;8.85;5.32;;;;;;;19.04;76.10;101633.03;4971587;28;20039;-63
2022/06/27 02:21:10;;;;;;;8.45;4.93;;;;;;;19.02;75.91;101629.59;4968624;28;20045;-63
2022/06/27 02:23:36;;;;;;;8.90;5.40;;;;;;;19.11;75.55;101622.91;4973448;28;20486;-62
2022/06/27 02:26:01;;;;;;;9.60;4.85;;;;;;;19.04;75.07;101633.03;4969927;28;20118;-62
2022/06/27 02:28:28;;;;;;;6.45;4.50;;;;;;;19.01;75.81;101639.41;4970628;28;20354;-62
2022/06/27 02:30:54;;;;;;;7.25;4.40;;;;;;;19.03;75.48;101637.50;4971012;28;20500;-62
2022/06/27 02:33:19;;;;;;;6.85;4.40;;;;;;;19.05;75.06;101637.41;4968088;28;20035;-62
2022/06/27 02:35:45;;;;;;;7.65;4.68;;;;;;;19.04;75.14;101633.03;4972164;28;20466;-62
2022/06/27 02:38:11;;;;;;;10.30;5.35;;;;;;;19.00;75.00;101626.16;4970601;28;20030;-62
2022/06/27 02:40:38;;;;;;;8.32;5.20;;;;;;;18.92;75.86;101626.59;4971630;28;20029;-62
2022/06/27 02:43:03;;;;;;;11.60;5.60;;;;;;;18.90;75.76;101626.66;4970262;28;20025;-62
2022/06/27 02:45:29;;;;;;;7.78;5.40;;;;;;;18.84;76.20;101627.00;4954443;28;20042;-62
2022/06/27 02:47:57;;;;;;;7.32;5.90;;;;;;;18.77;76.69;101614.97;4970213;28;20019;-63
2022/06/27 02:50:25;;;;;;;6.38;4.85;;;;;;;18.74;76.21;101623.16;4970552;28;20030;-63
2022/06/27 02:52:53;;;;;;;9.25;5.38;;;;;;;18.74;76.42;101624.03;4971751;28;20030;-63
2022/06/27 02:55:24;;;;;;;9.43;5.07;;;;;;;18.68;76.32;101617.22;4968243;28;20037;-63
2022/06/27 02:58:08;;;;;;;9.13;5.60;;;;;;;18.66;76.93;101621.78;4985564;28;20027;-62
2022/06/27 03:00:35;;;;;;;6.32;5.03;;;;;;;18.66;76.90;101607.59;4968840;28;20055;-63
2022/06/27 03:03:01;;;;;;;12.93;6.10;;;;;;;18.62;77.25;101606.00;4971193;28;20065;-63
2022/06/27 03:05:27;;;;;;;10.60;5.50;;;;;;;18.60;76.98;101600.75;4970726;28;20046;-62
2022/06/27 03:07:52;;;;;;;9.63;5.40;;;;;;;18.54;77.50;101599.28;4970349;28;20410;-62
2022/06/27 03:10:18;;;;;;;9.70;6.10;;;;;;;18.47;77.71;101591.72;4971053;28;20030;-62
2022/06/27 03:12:43;;;;;;;9.68;5.95;;;;;;;18.43;77.36;101580.38;4969924;28;20107;-62
2022/06/27 03:15:09;;;;;;;12.60;6.25;;;;;;;18.31;77.82;101588.09;4970701;28;20050;-61
2022/06/27 03:17:35;;;;;;;6.85;5.28;;;;;;;18.26;78.15;101589.28;4969114;28;20059;-61
2022/06/27 03:20:00;;;;;;;6.75;5.15;;;;;;;18.18;78.87;101587.03;4968230;28;20072;-62
2022/06/27 03:22:25;;;;;;;10.93;6.68;;;;;;;18.11;79.27;101591.84;4971436;28;20031;-63
2022/06/27 03:24:51;;;;;;;8.40;5.25;;;;;;;18.08;79.57;101596.44;4969860;28;20475;-61
2022/06/27 03:27:16;;;;;;;10.48;5.70;;;;;;;18.04;79.51;101596.63;4970390;28;20039;-62
2022/06/27 03:29:41;;;;;;;13.40;6.43;;;;;;;18.00;80.00;101594.22;4970431;28;20026;-62
2022/06/27 03:32:07;;;;;;;9.57;5.53;;;;;;;17.99;79.95;101592.47;4968655;28;20034;-63
2022/06/27 03:34:33;;;;;;;11.10;5.95;;;;;;;17.97;79.85;101600.53;4973650;28;20034;-62
2022/06/27 03:36:58;;;;;;;9.32;6.22;;;;;;;18.00;79.83;101596.88;4969259;28;20026;-61
2022/06/27 03:39:24;;;;;;;10.20;6.68;;;;;;;17.92;79.97;101595.50;4968505;28;20026;-61
2022/06/27 03:41:50;;;;;;;6.88;5.70;;;;;;;17.93;79.94;101605.19;4970855;28;20058;-62
2022/06/27 03:44:15;;;;;;;13.80;7.32;;;;;;;17.91;80.33;101606.22;4967469;28;20022;-63
2022/06/27 03:46:41;;;;;;;10.60;7.20;;;;;;;17.91;80.84;101607.06;4966529;28;20027;-63
2022/06/27 03:51:52;;;;;;;13.13;7.18;;;;;;;17.93;80.69;101594.53;4971401;28;20114;-63
2022/06/27 03:54:17;;;;;;;10.95;7.20;;;;;;;17.92;80.83;101583.94;4975334;28;20203;-63
2022/06/27 03:56:43;;;;;;;10.65;7.35;;;;;;;17.93;80.63;101588.34;4970136;28;20452;-62
2022/06/27 03:59:08;;;;;;;11.05;7.35;;;;;;;17.94;81.18;101595.38;4968729;28;20030;-62
2022/06/27 04:01:34;;;;;;;11.77;7.85;;;;;;;17.92;81.55;101576.81;4969751;28;20031;-63
2022/06/27 04:03:59;;;;;;;10.68;7.82;;;;;;;17.97;81.69;101576.56;4988580;28;20058;-62
2022/06/27 04:06:24;;;;;;;15.18;7.70;;;;;;;17.99;81.79;101576.47;4979044;28;20062;-62
2022/06/27 04:08:49;;;;;;;15.18;8.38;;;;;;;18.05;81.83;101578.81;4969852;28;20023;-62
2022/06/27 04:11:15;;;;;;;12.98;7.05;;;;;;;18.14;81.55;101591.69;4968413;28;20038;-62
2022/06/27 04:13:40;;;;;;;11.80;8.68;;;;;;;18.24;81.68;101593.88;4968648;28;20470;-63
2022/06/27 04:16:06;;;;;;;13.23;8.52;;;;;;;18.39;80.84;101584.16;4969867;28;20031;-62
2022/06/27 04:18:32;;;;;;;14.15;8.07;;;;;;;18.55;80.29;101587.66;4969996;28;20043;-63
2022/06/27 04:20:57;;;;;;;11.18;8.88;;;;;;;18.66;79.72;101584.41;4967615;28;20042;-63
2022/06/27 04:23:23;;;;;;;14.95;8.38;;;;;;;18.76;79.33;101583.88;4969774;28;20030;-63
2022/06/27 04:25:48;;;;;;;16.17;7.97;;;;;;;18.87;78.65;101597.47;4968311;28;20027;-63
2022/06/27 04:28:13;;;;;;;13.50;7.47;;;;;;;18.91;78.36;101591.00;4967909;28;20027;-64
2022/06/27 04:30:40;;;;;;;12.90;8.07;;;;;;;18.98;78.37;101593.31;4969855;28;20168;-63
2022/06/27 04:33:06;;;;;;;16.58;9.25;;;;;;;18.98;77.78;101579.97;4976079;28;20440;-65
2022/06/27 04:35:32;;;;;;;13.80;7.10;;;;;;;19.04;77.86;101568.94;4977041;28;20023;-63
2022/06/27 04:37:57;;;;;;;11.25;8.35;;;;;;;19.08;77.11;101549.13;4977999;28;20056;-61
2022/06/27 04:40:22;;;;;;;14.98;7.65;;;;;;;19.12;76.85;101536.47;4981906;28;20049;-61
2022/06/27 04:42:51;;;;;;;12.05;7.60;;;;;;;19.09;77.05;101532.19;4985022;28;20515;-62
2022/06/27 04:45:18;;;;;;;15.75;8.93;;;;;;;19.11;77.25;101546.28;4981252;28;20022;-63
2022/06/27 04:47:44;;;;;;;11.75;9.13;;;;;;;19.04;77.90;101539.56;4978146;28;20069;-63
2022/06/27 04:50:11;;;;;;;9.65;7.93;;;;;;;18.99;78.46;101537.16;4986615;28;20037;-64
2022/06/27 04:52:38;;;;;;;13.13;8.38;;;;;;;18.97;77.99;101531.06;4981650;28;20022;-62
2022/06/27 04:55:08;;;;;;;13.15;8.63;;;;;;;18.97;78.80;101532.88;4980564;28;20029;-61
2022/06/27 04:57:35;;;;;;;11.25;7.80;;;;;;;18.99;78.70;101530.97;4980794;28;20034;-62
2022/06/27 05:00:03;;;;;;;13.63;8.00;;;;;;;18.96;78.60;101531.16;4982522;28;20033;-62
2022/06/27 05:02:29;;;;;;;12.00;7.47;;;;;;;18.88;79.17;101532.47;4980348;28;20023;-63
2022/06/27 05:04:54;;;;;;;12.70;7.53;;;;;;;18.85;79.26;101534.44;4974908;28;20045;-63
2022/06/27 05:07:19;;;;;;;11.27;7.70;;;;;;;18.74;79.62;101535.94;4969543;28;20054;-62
2022/06/27 05:09:45;;;;;;;11.90;7.57;;;;;;;18.66;79.68;101539.03;4983060;28;20390;-63
2022/06/27 05:12:11;;;;;;;16.38;8.38;;;;;;;18.63;79.82;101547.22;4987076;28;20030;-63
2022/06/27 05:14:36;;;;;;;8.95;7.43;;;;;;;18.59;80.49;101553.69;4985969;28;20662;-62
2022/06/27 05:17:02;;;;;;;13.38;9.18;;;;;;;18.55;80.70;101558.31;4967443;28;20034;-61
2022/06/27 05:19:28;;;;;;;10.27;7.85;;;;;;;18.58;81.18;101561.78;4968151;28;20051;-60
2022/06/27 05:21:53;;;;;;;15.65;8.15;;;;;;;18.63;81.54;101565.91;4967401;28;21299;-62
2022/06/27 05:24:18;;;;;;;15.23;8.38;;;;;;;18.75;81.15;101559.00;4968382;28;20504;-62
2022/06/27 05:26:45;;;;;;;19.85;9.00;;;;;;;18.85;80.63;101559.34;4967518;28;20445;-62
2022/06/27 05:29:11;;;;;;;12.52;8.35;;;;;;;18.97;80.28;101570.25;4968586;28;20035;-61
2022/06/27 05:31:37;;;;;;;16.25;9.20;;;;;;;19.03;79.81;101569.91;4968324;28;20026;-62
2022/06/27 05:34:02;;;;;;;19.50;8.57;;;;;;;19.22;79.36;101561.69;4970059;28;20493;-61
2022/06/27 05:36:27;;;;;;;17.02;8.57;;;;;;;19.26;77.79;101573.06;4972291;28;20035;-62
2022/06/27 05:38:53;;;;;;;9.60;7.13;;;;;;;19.40;77.47;101591.81;4972449;28;20023;-61
2022/06/27 05:41:19;;;;;;;15.90;8.68;;;;;;;19.44;77.52;101592.47;4971922;28;20023;-62
2022/06/27 05:43:45;;;;;;;16.10;8.57;;;;;;;19.49;76.97;101590.38;4971972;28;20022;-63
2022/06/27 05:46:10;;;;;;;13.55;8.55;;;;;;;19.55;77.44;101594.50;4970139;28;20145;-63
2022/06/27 05:48:37;;;;;;;14.65;8.77;;;;;;;19.61;77.90;101609.31;4971033;28;20101;-61
2022/06/27 05:51:02;;;;;;;18.75;8.20;;;;;;;19.63;78.25;101602.91;4970505;28;20058;-61
2022/06/27 05:53:28;;;;;;;13.32;8.13;;;;;;;19.76;77.87;101600.38;4973568;28;20879;-63
2022/06/27 05:55:54;;;;;;;11.25;7.78;;;;;;;19.83;77.76;101606.19;4970969;28;20026;-62
2022/06/27 05:58:19;;;;;;;16.55;7.78;;;;;;;19.93;77.36;101612.69;4969646;28;20026;-63
2022/06/27 06:00:45;;;;;;;13.68;7.68;;;;;;;19.98;76.71;101614.25;4969901;28;20026;-63
2022/06/27 06:03:10;;;;;;;13.50;7.78;;;;;;;20.06;76.05;101631.56;4969993;28;20489;-62
2022/06/27 06:05:36;;;;;;;11.27;6.43;;;;;;;20.26;76.20;101636.63;4972291;28;20425;-61
2022/06/27 06:08:06;;;;;;;16.00;6.85;;;;;;;20.34;73.22;101631.63;4970711;28;20380;-62
2022/06/27 06:10:35;;;;;;;10.40;6.63;;;;;;;20.40;73.85;101641.97;4972794;28;20081;-61
2022/06/27 06:13:03;;;;;;;14.18;6.45;;;;;;;20.50;73.30;101638.69;4970360;28;20432;-61
2022/06/27 06:15:31;;;;;;;10.75;6.40;;;;;;;20.64;72.87;101636.00;4969471;28;20023;-63
2022/06/27 06:18:01;;;;;;;12.40;5.97;;;;;;;20.66;72.25;101634.09;4971034;28;20246;-62
2022/06/27 06:20:26;;;;;;;8.80;5.93;;;;;;;20.67;73.16;101632.25;4973430;28;20018;-62
2022/06/27 06:22:52;;;;;;;8.68;5.88;;;;;;;20.83;71.90;101629.47;4985506;28;20120;-62
2022/06/27 06:25:17;;;;;;;10.82;6.53;;;;;;;20.87;71.61;101622.94;4989547;28;20022;-62
2022/06/27 06:27:44;;;;;;;10.20;7.20;;;;;;;20.94;71.94;101623.41;4989450;28;20023;-62
2022/06/27 06:30:10;;;;;;;9.23;7.07;;;;;;;20.80;71.67;101635.00;4970989;28;20062;-66
2022/06/27 06:32:35;;;;;;;10.55;7.05;;;;;;;20.98;71.46;101637.47;4971214;28;20027;-63
2022/06/27 06:35:02;;;;;;;10.98;7.25;;;;;;;20.95;72.26;101660.81;4978523;28;20022;-62
2022/06/27 06:37:29;;;;;;;12.43;7.30;;;;;;;21.04;71.58;101667.38;4990612;28;20493;-62
2022/06/27 06:39:54;;;;;;;16.42;7.82;;;;;;;20.98;71.91;101669.63;4987397;28;20409;-63
2022/06/27 06:42:20;;;;;;;10.40;6.95;;;;;;;21.11;71.43;101680.38;4969487;28;20082;-60
2022/06/27 06:44:46;;;;;;;12.90;6.88;;;;;;;21.38;69.42;101682.19;4970899;28;20059;-62
2022/06/27 06:47:12;;;;;;;9.48;6.43;;;;;;;21.32;69.92;101683.47;4970556;28;20109;-62
2022/06/27 06:49:39;;;;;;;9.27;6.57;;;;;;;21.40;69.24;101682.97;4970902;28;20027;-64
2022/06/27 06:52:05;;;;;;;12.13;6.53;;;;;;;21.44;68.90;101681.78;4971471;28;20026;-62
2022/06/27 06:54:31;;;;;;;12.48;5.95;;;;;;;21.39;68.98;101649.94;4970900;28;20469;-62
2022/06/27 06:56:56;;;;;;;12.27;6.55;;;;;;;21.40;69.03;101627.50;4970950;28;20034;-61
2022/06/27 06:59:22;;;;;;;16.33;6.90;;;;;;;21.25;69.48;101618.69;4975622;28;20019;-61
2022/06/27 07:01:47;;;;;;;10.45;6.85;;;;;;;21.12;70.40;101607.94;4970321;28;20027;-62
2022/06/27 07:04:14;;;;;;;12.45;7.25;;;;;;;21.04;71.09;101604.94;4969195;28;20031;-64
2022/06/27 07:06:40;;;;;;;12.23;7.00;;;;;;;20.94;70.56;101608.22;4970224;28;20023;-63
2022/06/27 07:09:05;;;;;;;12.73;6.55;;;;;;;21.07;70.64;101604.72;4969772;28;20304;-62
2022/06/27 07:11:37;;;;;;;13.13;6.25;;;;;;;21.16;69.99;101582.66;4988421;28;20034;-62
2022/06/27 07:14:03;;;;;;;16.88;7.20;;;;;;;21.10;70.23;101580.38;4989171;28;20026;-63
2022/06/27 07:16:28;;;;;;;13.55;6.85;;;;;;;21.07;70.79;101576.09;4987327;28;20054;-62
2022/06/27 07:18:55;;;;;;;9.95;6.65;;;;;;;20.93;72.00;101595.78;4988833;28;20128;-62
2022/06/27 07:21:21;;;;;;;14.18;7.18;;;;;;;20.95;72.26;101596.53;4984036;28;20037;-63
2022/06/27 07:23:48;;;;;;;11.50;7.13;;;;;;;21.06;72.41;101593.13;4968975;28;20027;-62
2022/06/27 07:26:14;;;;;;;13.23;7.13;;;;;;;21.11;71.86;101600.88;4968911;28;20062;-62
2022/06/27 07:28:40;;;;;;;8.30;6.97;;;;;;;21.34;71.57;101606.47;4969163;28;20442;-62
2022/06/27 07:31:08;;;;;;;12.15;7.57;;;;;;;21.37;71.38;101616.16;4968401;28;20121;-64
2022/06/27 07:33:39;;;;;;;16.50;7.85;;;;;;;21.49;71.72;101626.03;4974865;28;20109;-62
2022/06/27 07:36:06;;;;;;;13.38;7.45;;;;;;;21.59;70.53;101624.44;4970950;28;20070;-63
2022/06/27 07:38:36;;;;;;;14.43;7.45;;;;;;;21.44;70.67;101618.31;4968989;28;20393;-63
2022/06/27 07:41:01;;;;;;;21.38;8.32;;;;;;;21.26;71.84;101617.75;4987606;28;20026;-62
2022/06/27 07:43:27;;;;;;;12.13;7.18;;;;;;;21.24;71.48;101629.50;4987433;28;20050;-62
2022/06/27 07:45:55;;;;;;;13.93;7.85;;;;;;;21.17;72.24;101637.97;4978850;28;20069;-64
2022/06/27 07:48:21;;;;;;;9.20;8.10;;;;;;;21.21;72.02;101646.66;4969902;28;20022;-62
2022/06/27 07:50:47;;;;;;;13.13;7.82;;;;;;;21.43;70.28;101639.88;4968677;28;20035;-62
2022/06/27 07:53:19;;;;;;;10.93;7.22;;;;;;;21.35;71.67;101637.69;4986408;28;20129;-64
2022/06/27 07:55:47;;;;;;;10.07;7.38;;;;;;;21.44;70.97;101634.41;4988590;28;20034;-63
2022/06/27 07:58:16;;;;;;;10.38;7.90;;;;;;;21.40;71.59;101632.88;4987355;28;20041;-65
2022/06/27 08:00:43;;;;;;;13.82;8.13;;;;;;;21.31;70.83;101638.88;4987430;28;20101;-61
2022/06/27 08:05:54;;;;;;;13.40;7.18;;;;;;;21.76;69.31;101651.09;4981653;28;20194;-63
2022/06/27 08:08:23;;;;;;;14.50;7.30;;;;;;;21.77;68.78;101644.78;4969502;28;20344;-62
2022/06/27 08:10:48;;;;;;;16.00;7.57;;;;;;;21.81;69.75;101647.13;4968252;28;20393;-63
2022/06/27 08:13:14;;;;;;;15.85;6.65;;;;;;;21.99;68.64;101657.53;4983888;28;20031;-63
2022/06/27 08:15:41;;;;;;;11.68;6.95;;;;;;;22.08;68.17;101659.59;4968509;28;20457;-63
2022/06/27 08:18:08;;;;;;;15.30;7.63;;;;;;;22.18;68.05;101648.19;4974932;28;20555;-63
2022/06/27 08:20:35;;;;;;;11.23;6.95;;;;;;;22.16;67.05;101637.59;4989206;28;20038;-63
2022/06/27 08:23:00;;;;;;;11.25;7.15;;;;;;;22.20;67.23;101636.41;4987886;28;20089;-62
2022/06/27 08:25:25;;;;;;;12.80;7.18;;;;;;;22.16;67.03;101639.41;4969496;28;20482;-63
2022/06/27 08:27:51;;;;;;;11.00;6.70;;;;;;;22.04;68.19;101646.50;4988046;28;20413;-63
2022/06/27 08:30:16;;;;;;;13.75;8.55;;;;;;;21.93;68.58;101641.88;4986677;28;20583;-62
2022/06/27 08:32:42;;;;;;;16.13;8.07;;;;;;;22.15;68.16;101637.69;4987504;28;20034;-63
2022/06/27 08:35:08;;;;;;;12.00;7.68;;;;;;;22.40;67.82;101642.16;4969532;28;20041;-63
2022/06/27 08:37:33;;;;;;;16.08;7.78;;;;;;;22.63;67.05;101636.97;4967704;28;20027;-61
2022/06/27 08:39:59;;;;;;;10.55;7.13;;;;;;;22.70;66.04;101648.13;4967678;28;20031;-61
2022/06/27 08:42:24;;;;;;;13.20;7.82;;;;;;;22.76;65.77;101660.25;4967967;28;20536;-62
2022/06/27 08:44:50;;;;;;;11.93;7.05;;;;;;;22.92;66.01;101676.09;4979238;28;20113;-62
2022/06/27 08:47:16;;;;;;;16.08;7.50;;;;;;;22.91;65.65;101671.72;4988205;28;20030;-63
2022/06/27 08:49:46;;;;;;;14.93;8.05;;;;;;;22.82;66.50;101678.63;4982506;28;20375;-63
2022/06/27 08:52:11;;;;;;;13.93;7.05;;;;;;;23.05;64.32;101684.97;4968881;28;20035;-61
2022/06/27 08:54:37;;;;;;;14.52;7.30;;;;;;;23.10;63.82;101685.50;4968170;28;20023;-68
2022/06/27 08:57:04;;;;;;;14.93;7.28;;;;;;;23.13;63.91;101687.09;4968383;28;20035;-66
2022/06/27 08:59:30;;;;;;;15.02;7.18;;;;;;;23.24;63.40;101689.00;4968198;28;20034;-67
2022/06/27 09:01:56;;;;;;;11.55;6.95;;;;;;;23.04;64.15;101694.03;4967436;28;20069;-63
2022/06/27 09:04:21;;;;;;;11.50;7.80;;;;;;;22.81;65.34;101687.63;4967134;28;20118;-63
2022/06/27 09:06:47;;;;;;;11.43;6.65;;;;;;;23.02;63.22;101701.31;4967284;28;20030;-63
2022/06/27 09:09:15;;;;;;;15.02;7.25;;;;;;;22.71;64.74;101704.44;4970537;28;20030;-62
2022/06/27 09:11:46;;;;;;;11.82;6.68;;;;;;;22.63;65.86;101701.44;4968013;28;20077;-64
2022/06/27 09:14:34;;;;;;;14.48;6.95;;;;;;;22.79;65.06;101694.97;4971797;28;20030;-65
2022/06/27 09:17:01;;;;;;;12.38;6.85;;;;;;;22.81;64.92;101704.63;4970603;28;20106;-66
2022/06/27 09:19:45;;;;;;;12.40;7.32;;;;;;;22.61;66.04;101700.69;4970811;28;20141;-64
2022/06/27 09:22:14;;;;;;;16.10;6.45;;;;;;;22.74;64.84;101689.03;4970810;28;20026;-62
2022/06/27 09:25:04;;;;;;;13.45;7.30;;;;;;;22.72;64.62;101684.66;4991596;28;20022;-64
2022/06/27 09:27:44;;;;;;;11.80;7.03;;;;;;;22.77;64.80;101684.31;4984869;28;20031;-62
2022/06/27 09:30:22;;;;;;;10.57;6.28;;;;;;;22.70;66.45;101683.91;4971528;28;20031;-64
2022/06/27 09:32:53;;;;;;;13.85;6.38;;;;;;;22.70;65.94;101694.63;4970505;28;20031;-63
2022/06/27 09:35:23;;;;;;;16.30;6.32;;;;;;;22.87;65.61;101679.13;4971187;28;20386;-63
2022/06/27 09:37:55;;;;;;;16.17;6.45;;;;;;;23.14;65.70;101678.06;4970018;28;20034;-63
2022/06/27 09:40:25;;;;;;;9.60;6.15;;;;;;;23.39;64.25;101697.75;4971679;28;20410;-62
2022/06/27 09:42:55;;;;;;;11.80;6.72;;;;;;;23.48;63.40;101688.97;4970599;28;20119;-63
2022/06/27 09:45:26;;;;;;;17.95;6.93;;;;;;;23.48;62.45;101702.44;4990155;28;20041;-63
2022/06/27 09:47:56;;;;;;;14.07;6.63;;;;;;;23.72;61.10;101706.06;4987971;28;20069;-64
2022/06/27 09:50:22;;;;;;;11.48;6.45;;;;;;;23.64;61.74;101701.28;4972027;28;20022;-64
2022/06/27 09:52:48;;;;;;;10.80;5.97;;;;;;;23.57;62.45;101689.28;4970514;28;20030;-64
2022/06/27 09:55:14;;;;;;;14.05;7.15;;;;;;;23.37;63.21;101690.78;4994398;28;20019;-67
2022/06/27 09:57:40;;;;;;;13.18;7.40;;;;;;;23.31;62.58;101692.06;4976759;28;20023;-63
2022/06/27 10:00:08;;;;;;;12.32;6.75;;;;;;;23.51;62.02;101690.56;4968708;28;20023;-64
2022/06/27 10:02:34;;;;;;;11.88;6.80;;;;;;;23.48;61.23;101686.28;4961441;28;20035;-64
2022/06/27 10:05:00;;;;;;;10.70;5.97;;;;;;;23.78;60.95;101685.91;4969464;28;20035;-65
2022/06/27 10:07:26;;;;;;;11.07;6.80;;;;;;;23.71;61.40;101685.50;4965991;28;20079;-63
2022/06/27 10:09:52;;;;;;;15.57;6.00;;;;;;;23.73;60.96;101683.56;4957685;28;20097;-65
2022/06/27 10:12:24;;;;;;;11.80;5.22;;;;;;;23.89;61.86;101683.22;4951846;28;20492;-65
2022/06/27 10:15:15;;;;;;;13.27;5.60;;;;;;;23.88;60.48;101680.66;4968645;28;20027;-65
2022/06/27 10:17:45;;;;;;;9.13;5.93;;;;;;;23.62;62.53;101687.06;4966895;28;20066;-65
2022/06/27 10:20:26;;;;;;;11.25;7.05;;;;;;;23.39;62.67;101692.38;4967958;28;20054;-64
2022/06/27 10:23:04;;;;;;;11.35;6.57;;;;;;;23.32;63.44;101700.00;4966329;28;20019;-64
2022/06/27 10:25:29;;;;;;;10.60;6.78;;;;;;;23.33;63.44;101698.19;4969808;28;20460;-64
2022/06/27 10:30:36;;;;;;;14.05;7.28;;;;;;;23.26;64.67;101697.78;4969436;28;20039;-64
2022/06/27 10:33:24;;;;;;;13.25;6.47;;;;;;;23.08;65.07;101695.50;4969855;28;20045;-64
2022/06/27 10:36:02;;;;;;;13.00;8.23;;;;;;;23.04;65.74;101693.16;4969895;28;20166;-64
2022/06/27 10:38:30;;;;;;;10.60;7.88;;;;;;;22.85;67.28;101687.28;4968635;28;20557;-65
2022/06/27 10:40:57;;;;;;;13.20;7.85;;;;;;;22.84;67.38;101682.03;4982393;28;20038;-66
2022/06/27 10:43:53;;;;;;;16.83;7.68;;;;;;;22.79;67.73;101690.41;4983805;28;20350;-64
2022/06/27 10:46:18;;;;;;;12.80;7.20;;;;;;;22.77;67.04;101688.81;4974344;28;20046;-63
2022/06/27 10:48:48;;;;;;;10.53;7.03;;;;;;;22.87;66.29;101689.88;4987257;28;20033;-65
2022/06/27 10:51:30;;;;;;;10.75;6.75;;;;;;;22.87;65.41;101692.56;4983687;28;20315;-65
2022/06/27 10:53:58;;;;;;;10.60;6.68;;;;;;;23.04;65.41;101701.22;4988036;28;20086;-65
2022/06/27 10:56:30;;;;;;;13.18;7.15;;;;;;;22.89;66.56;101696.00;4987243;28;20022;-64
2022/06/27 10:58:59;;;;;;;9.63;5.10;;;;;;;22.95;65.93;101690.19;4987417;28;20033;-64
2022/06/27 11:01:25;;;;;;;17.33;7.45;;;;;;;23.08;64.74;101678.50;4986586;28;20089;-64
2022/06/27 11:03:51;;;;;;;11.43;6.10;;;;;;;23.02;66.07;101685.19;4983128;28;20070;-63
2022/06/27 11:06:17;;;;;;;12.45;6.43;;;;;;;23.13;63.98;101687.09;4967763;28;20037;-63
2022/06/27 11:08:47;;;;;;;14.20;6.60;;;;;;;23.28;62.99;101686.91;4987645;28;20069;-64
2022/06/27 11:11:25;;;;;;;9.65;5.50;;;;;;;23.40;62.83;101691.41;4987438;28;20023;-64
2022/06/27 11:13:55;;;;;;;14.87;6.33;;;;;;;23.44;64.27;101690.19;4982642;28;20100;-64
2022/06/27 11:16:24;;;;;;;9.80;5.25;;;;;;;23.62;63.14;101691.63;4978917;28;20026;-64
2022/06/27 11:18:54;;;;;;;10.73;5.60;;;;;;;23.73;60.66;101688.94;4985209;28;20049;-65
2022/06/27 11:21:22;;;;;;;9.57;5.05;;;;;;;23.77;61.36;101698.50;4985435;28;20037;-69
2022/06/27 11:23:56;;;;;;;12.48;5.55;;;;;;;23.86;61.69;101702.31;4986197;28;20045;-64
2022/06/27 11:26:29;;;;;;;10.68;4.82;;;;;;;23.75;62.09;101696.91;4982951;28;20033;-64
2022/06/27 11:31:57;;;;;;;11.55;5.22;;;;;;;23.59;60.56;101674.72;4983356;28;20081;-64